createdAt,value
2023-03-16T00:02:18.855Z,0.67
2023-03-16T00:04:48.582Z,0.65
2023-03-16T00:07:16.842Z,0.64
2023-03-16T00:09:44.881Z,0.64
2023-03-16T00:12:18.608Z,0.65
2023-03-16T00:14:49.148Z,0.64
2023-03-16T00:17:19.594Z,0.60
2023-03-16T00:19:55.436Z,0.59
2023-03-16T00:22:29.078Z,0.57
2023-03-16T00:24:57.572Z,0.59
2023-03-16T00:27:26.565Z,0.61
2023-03-16T00:29:56.156Z,0.60
2023-03-16T00:32:27.573Z,0.61
2023-03-16T00:34:55.981Z,0.62
2023-03-16T00:37:26.044Z,0.63
2023-03-16T00:39:58.282Z,0.68
2023-03-16T00:42:28.701Z,0.69
2023-03-16T00:45:01.881Z,0.69
2023-03-16T00:47:33.037Z,0.70
2023-03-16T00:50:02.405Z,0.70
2023-03-16T00:52:30.822Z,0.69
2023-03-16T00:54:59.325Z,0.68
2023-03-16T00:57:30.452Z,0.66
2023-03-16T00:59:59.735Z,0.63
2023-03-16T01:02:28.226Z,0.62
2023-03-16T01:04:56.387Z,0.61
2023-03-16T01:07:26.924Z,0.62
2023-03-16T01:09:54.886Z,0.61
2023-03-16T01:12:22.952Z,0.61
2023-03-16T01:14:51.020Z,0.59
2023-03-16T01:17:19.095Z,0.58
2023-03-16T01:19:47.063Z,0.58
2023-03-16T01:22:16.397Z,0.58
2023-03-16T01:24:45.821Z,0.58
2023-03-16T01:27:14.863Z,0.58
2023-03-16T01:29:43.950Z,0.58
2023-03-16T01:32:13.039Z,0.59
2023-03-16T01:34:41.833Z,0.58
2023-03-16T01:37:11.653Z,0.56
2023-03-16T01:39:53.023Z,0.52
2023-03-16T01:42:21.379Z,0.51
2023-03-16T01:45:01.858Z,0.51
2023-03-16T01:47:39.742Z,0.49
2023-03-16T01:50:13.772Z,0.46
2023-03-16T01:52:43.403Z,0.45
2023-03-16T01:55:15.860Z,0.46
2023-03-16T01:57:47.176Z,0.47
2023-03-16T02:00:23.976Z,0.46
2023-03-16T02:03:08.030Z,0.45
2023-03-16T02:05:53.031Z,0.44
2023-03-16T02:08:23.156Z,0.46
2023-03-16T02:10:54.893Z,0.46
2023-03-16T02:13:25.737Z,0.45
2023-03-16T02:15:55.237Z,0.45
2023-03-16T02:18:23.444Z,0.41
2023-03-16T02:21:13.051Z,0.41
2023-03-16T02:23:43.692Z,0.36
2023-03-16T02:26:29.062Z,0.36
2023-03-16T02:29:11.627Z,0.35
2023-03-16T02:31:40.258Z,0.35
2023-03-16T02:34:09.856Z,0.36
2023-03-16T02:36:42.026Z,0.38
2023-03-16T02:39:10.196Z,0.39
2023-03-16T02:41:46.187Z,0.38
2023-03-16T02:44:24.429Z,0.37
2023-03-16T02:46:58.503Z,0.37
2023-03-16T02:49:28.285Z,0.36
2023-03-16T02:51:57.787Z,0.35
2023-03-16T02:54:26.057Z,0.33
2023-03-16T02:56:54.347Z,0.33
2023-03-16T02:59:22.819Z,0.33
2023-03-16T03:01:51.707Z,0.33
2023-03-16T03:04:20.569Z,0.32
2023-03-16T03:06:50.817Z,0.31
2023-03-16T03:09:19.821Z,0.32
2023-03-16T03:11:48.599Z,0.33
2023-03-16T03:14:17.025Z,0.30
2023-03-16T03:16:47.055Z,0.28
2023-03-16T03:19:15.421Z,0.26
2023-03-16T03:21:43.740Z,0.25
2023-03-16T03:24:11.814Z,0.25
2023-03-16T03:26:39.898Z,0.24
2023-03-16T03:29:11.339Z,0.25
2023-03-16T03:31:39.957Z,0.27
2023-03-16T03:34:08.400Z,0.28
2023-03-16T03:36:36.976Z,0.28
2023-03-16T03:39:06.460Z,0.28
2023-03-16T03:41:35.067Z,0.26
2023-03-16T03:44:05.474Z,0.23
2023-03-16T03:46:34.864Z,0.20
2023-03-16T03:49:05.454Z,0.19
2023-03-16T03:51:35.391Z,0.20
2023-03-16T03:54:07.979Z,0.19
2023-03-16T03:56:49.289Z,0.15
2023-03-16T03:59:18.588Z,0.17
2023-03-16T04:02:12.494Z,0.15
2023-03-16T04:04:44.958Z,0.13
2023-03-16T04:07:14.029Z,0.15
2023-03-16T04:09:42.936Z,0.15
2023-03-16T04:12:17.145Z,0.15
2023-03-16T04:14:45.427Z,0.17
2023-03-16T04:17:13.689Z,0.18
2023-03-16T04:19:42.372Z,0.21
2023-03-16T04:22:13.610Z,0.23
2023-03-16T04:24:43.339Z,0.24
2023-03-16T04:27:12.290Z,0.26
2023-03-16T04:29:40.689Z,0.27
2023-03-16T04:32:09.172Z,0.27
2023-03-16T04:34:38.676Z,0.29
2023-03-16T04:37:06.952Z,0.28
2023-03-16T04:39:36.052Z,0.27
2023-03-16T04:42:04.221Z,0.24
2023-03-16T04:44:32.400Z,0.22
2023-03-16T04:47:00.763Z,0.21
2023-03-16T04:49:34.767Z,0.21
2023-03-16T04:52:02.822Z,0.20
2023-03-16T04:54:32.124Z,0.21
2023-03-16T04:57:01.076Z,0.21
2023-03-16T04:59:36.502Z,0.18
2023-03-16T05:02:21.040Z,0.14
2023-03-16T05:04:49.723Z,0.14
2023-03-16T05:07:19.345Z,0.15
2023-03-16T05:09:50.678Z,0.17
2023-03-16T05:12:19.368Z,0.20
2023-03-16T05:14:47.946Z,0.23
2023-03-16T05:17:42.644Z,0.22
2023-03-16T05:20:15.951Z,0.24
2023-03-16T05:22:48.513Z,0.29
2023-03-16T05:25:21.410Z,0.38
2023-03-16T05:27:54.491Z,0.53
2023-03-16T05:30:31.472Z,0.72
2023-03-16T05:33:01.440Z,0.99
2023-03-16T05:35:29.741Z,1.13
2023-03-16T05:38:01.102Z,1.15
2023-03-16T05:40:29.817Z,1.19
2023-03-16T05:43:09.428Z,1.19
2023-03-16T05:45:41.307Z,1.19
2023-03-16T05:48:13.236Z,1.23
2023-03-16T05:50:45.313Z,1.28
2023-03-16T05:53:15.406Z,1.37
2023-03-16T05:55:43.777Z,1.45
2023-03-16T05:58:13.509Z,1.57
2023-03-16T06:00:42.302Z,1.69
2023-03-16T06:03:18.518Z,1.77
2023-03-16T06:05:47.717Z,1.92
2023-03-16T06:08:16.471Z,2.05
2023-03-16T06:10:49.638Z,2.12
2023-03-16T06:13:18.350Z,2.14
2023-03-16T06:15:46.597Z,2.15
2023-03-16T06:18:14.869Z,2.16
2023-03-16T06:20:43.862Z,2.15
2023-03-16T06:23:12.653Z,2.16
2023-03-16T06:25:41.174Z,2.15
2023-03-16T06:28:09.615Z,2.15
2023-03-16T06:30:38.500Z,2.21
2023-03-16T06:33:07.038Z,2.26
2023-03-16T06:35:35.389Z,2.29
2023-03-16T06:38:12.641Z,2.29
2023-03-16T06:40:55.871Z,2.28
2023-03-16T06:43:24.397Z,2.32
2023-03-16T06:45:52.837Z,2.32
2023-03-16T06:48:21.312Z,2.36
2023-03-16T06:50:49.487Z,2.41
2023-03-16T06:53:22.403Z,2.43
2023-03-16T06:55:51.527Z,2.43
2023-03-16T06:58:20.042Z,2.48
2023-03-16T07:00:48.144Z,2.53
2023-03-16T07:03:16.211Z,2.60
2023-03-16T07:05:48.671Z,2.71
2023-03-16T07:08:17.033Z,2.81
2023-03-16T07:10:45.200Z,2.87
2023-03-16T07:13:14.055Z,2.87
2023-03-16T07:15:42.775Z,2.89
2023-03-16T07:18:12.632Z,2.96
2023-03-16T07:20:40.760Z,3.03
2023-03-16T07:23:09.034Z,3.06
2023-03-16T07:25:37.421Z,3.12
2023-03-16T07:28:06.043Z,3.17
2023-03-16T07:30:38.980Z,3.20
2023-03-16T07:33:07.677Z,3.25
2023-03-16T07:35:36.489Z,3.32
2023-03-16T07:38:05.009Z,3.38
2023-03-16T07:40:34.882Z,3.48
2023-03-16T07:43:08.344Z,3.58
2023-03-16T07:45:40.666Z,3.65
2023-03-16T07:48:09.093Z,3.69
2023-03-16T07:50:50.193Z,3.71
2023-03-16T07:53:18.652Z,3.73
2023-03-16T07:55:50.605Z,3.78
2023-03-16T07:58:19.196Z,3.86
2023-03-16T08:00:47.979Z,3.90
2023-03-16T08:03:16.384Z,3.94
2023-03-16T08:05:44.984Z,3.98
2023-03-16T08:08:16.181Z,4.07
2023-03-16T08:10:44.637Z,4.15
2023-03-16T08:13:16.432Z,4.19
2023-03-16T08:16:02.227Z,4.32
2023-03-16T08:18:38.883Z,4.44
2023-03-16T08:21:07.149Z,4.56
2023-03-16T08:23:36.312Z,4.69
2023-03-16T08:26:09.132Z,4.81
2023-03-16T08:28:37.653Z,4.92
2023-03-16T08:31:09.392Z,5.01
2023-03-16T08:33:52.805Z,5.08
2023-03-16T08:36:23.967Z,5.08
2023-03-16T08:39:06.064Z,5.11
2023-03-16T08:41:38.012Z,5.17
2023-03-16T08:44:09.782Z,5.22
2023-03-16T08:46:38.258Z,5.24
2023-03-16T08:49:07.137Z,5.24
2023-03-16T08:51:35.402Z,5.28
2023-03-16T08:54:03.571Z,5.36
2023-03-16T08:56:32.776Z,5.41
2023-03-16T08:59:01.046Z,5.47
2023-03-16T09:01:29.869Z,5.51
2023-03-16T09:03:58.613Z,5.56
2023-03-16T09:06:26.996Z,5.57
2023-03-16T09:08:56.278Z,5.63
2023-03-16T09:11:28.668Z,5.71
2023-03-16T09:13:56.941Z,5.76
2023-03-16T09:16:25.882Z,5.78
2023-03-16T09:18:56.060Z,5.83
2023-03-16T09:21:24.169Z,5.87
2023-03-16T09:23:52.312Z,5.88
2023-03-16T09:26:20.901Z,5.93
2023-03-16T09:28:49.532Z,5.99
2023-03-16T09:31:20.054Z,6.04
2023-03-16T09:33:48.778Z,6.08
2023-03-16T09:36:17.753Z,6.12
2023-03-16T09:38:45.948Z,6.17
2023-03-16T09:41:45.544Z,6.20
2023-03-16T09:44:47.017Z,6.20
2023-03-16T09:47:17.224Z,6.16
2023-03-16T09:49:48.597Z,6.17
2023-03-16T09:52:30.443Z,6.22
2023-03-16T09:55:31.869Z,6.30
2023-03-16T09:58:01.141Z,6.36
2023-03-16T10:00:34.347Z,6.47
2023-03-16T10:03:17.761Z,6.57
2023-03-16T10:05:49.913Z,6.61
2023-03-16T10:08:31.025Z,6.67
2023-03-16T10:11:11.474Z,6.67
2023-03-16T10:13:48.622Z,6.73
2023-03-16T10:16:21.340Z,6.79
2023-03-16T10:19:08.951Z,6.83
2023-03-16T10:21:40.618Z,6.82
2023-03-16T10:24:27.374Z,6.77
2023-03-16T10:27:01.355Z,6.73
2023-03-16T10:29:35.093Z,6.68
2023-03-16T10:32:14.269Z,6.62
2023-03-16T10:34:48.813Z,6.55
2023-03-16T10:37:16.798Z,6.52
2023-03-16T10:39:44.678Z,6.51
2023-03-16T10:42:18.194Z,6.50
2023-03-16T10:44:47.544Z,6.46
2023-03-16T10:47:34.003Z,6.42
2023-03-16T10:50:16.816Z,6.40
2023-03-16T10:52:48.253Z,6.45
2023-03-16T10:55:21.305Z,6.54
2023-03-16T10:57:53.698Z,6.64
2023-03-16T11:00:26.408Z,6.74
2023-03-16T11:02:56.802Z,6.85
2023-03-16T11:05:27.013Z,6.92
2023-03-16T11:08:22.129Z,6.94
2023-03-16T11:11:12.028Z,6.92
2023-03-16T11:13:45.040Z,6.87
2023-03-16T11:16:31.381Z,6.87
2023-03-16T11:19:29.386Z,6.83
2023-03-16T11:22:03.122Z,6.77
2023-03-16T11:24:45.647Z,6.72
2023-03-16T11:27:43.773Z,6.70
2023-03-16T11:30:29.401Z,6.67
2023-03-16T11:33:00.345Z,6.68
2023-03-16T11:35:58.655Z,6.73
2023-03-16T11:39:02.294Z,6.77
2023-03-16T11:41:45.811Z,6.79
2023-03-16T11:44:33.043Z,6.79
2023-03-16T11:47:43.219Z,6.80
2023-03-16T11:50:20.133Z,6.82
2023-03-16T11:53:02.570Z,6.90
2023-03-16T11:55:46.742Z,6.96
2023-03-16T11:58:31.791Z,7.00
2023-03-16T12:01:21.058Z,7.02
2023-03-16T12:04:34.413Z,7.06
2023-03-16T12:07:21.948Z,7.10
2023-03-16T12:09:59.117Z,7.15
2023-03-16T12:12:50.607Z,7.21
2023-03-16T12:15:36.945Z,7.26
2023-03-16T12:18:23.519Z,7.28
2023-03-16T12:21:12.300Z,7.29
2023-03-16T12:23:52.559Z,7.30
2023-03-16T12:26:23.656Z,7.29
2023-03-16T12:28:54.403Z,7.30
2023-03-16T12:31:47.712Z,7.32
2023-03-16T12:34:30.067Z,7.31
2023-03-16T12:37:02.857Z,7.30
2023-03-16T12:40:09.171Z,7.30
2023-03-16T12:42:49.683Z,7.26
2023-03-16T12:45:27.605Z,7.29
2023-03-16T12:48:11.033Z,7.35
2023-03-16T12:50:54.852Z,7.43
2023-03-16T12:53:41.049Z,7.49
2023-03-16T12:56:21.525Z,7.56
2023-03-16T12:58:50.878Z,7.63
2023-03-16T13:01:25.772Z,7.71
2023-03-16T13:04:02.231Z,7.75
2023-03-16T13:06:36.470Z,7.75
2023-03-16T13:09:07.501Z,7.71
2023-03-16T13:11:47.540Z,7.67
2023-03-16T13:14:40.770Z,7.65
2023-03-16T13:17:17.764Z,7.62
2023-03-16T13:19:59.584Z,7.60
2023-03-16T13:22:32.557Z,7.50
2023-03-16T13:25:15.758Z,7.42
2023-03-16T13:27:50.121Z,7.38
2023-03-16T13:30:22.479Z,7.41
2023-03-16T13:33:01.899Z,7.44
2023-03-16T13:35:32.052Z,7.40
2023-03-16T13:38:08.145Z,7.41
2023-03-16T13:40:46.617Z,7.42
2023-03-16T13:43:21.902Z,7.41
2023-03-16T13:45:50.067Z,7.40
2023-03-16T13:48:18.462Z,7.37
2023-03-16T13:50:52.791Z,7.34
2023-03-16T13:53:42.607Z,7.32
2023-03-16T13:56:21.444Z,7.26
2023-03-16T13:58:52.204Z,7.23
2023-03-16T14:01:26.570Z,7.21
2023-03-16T14:03:58.424Z,7.20
2023-03-16T14:06:29.628Z,7.14
2023-03-16T14:09:04.660Z,7.10
2023-03-16T14:11:33.248Z,7.05
2023-03-16T14:14:02.178Z,7.07
2023-03-16T14:16:32.131Z,7.04
2023-03-16T14:19:08.168Z,7.00
2023-03-16T14:21:36.107Z,6.95
2023-03-16T14:24:17.719Z,6.93
2023-03-16T14:26:47.681Z,6.89
2023-03-16T14:29:22.061Z,6.85
2023-03-16T14:31:49.856Z,6.83
2023-03-16T14:34:27.065Z,6.85
2023-03-16T14:37:12.587Z,6.85
2023-03-16T14:39:40.816Z,6.85
2023-03-16T14:42:21.536Z,6.89
2023-03-16T14:44:50.469Z,6.88
2023-03-16T14:47:28.762Z,6.91
2023-03-16T14:49:59.870Z,6.92
2023-03-16T14:52:33.854Z,6.95
2023-03-16T14:55:16.497Z,6.91
2023-03-16T14:57:47.390Z,6.71
2023-03-16T15:00:17.745Z,6.52
2023-03-16T15:02:57.868Z,6.41
2023-03-16T15:05:36.772Z,6.28
2023-03-16T15:08:07.255Z,6.23
2023-03-16T15:10:36.303Z,6.18
2023-03-16T15:13:16.284Z,6.11
2023-03-16T15:15:44.189Z,6.03
2023-03-16T15:18:12.215Z,6.01
2023-03-16T15:20:43.342Z,6.00
2023-03-16T15:23:15.071Z,5.98
2023-03-16T15:25:45.011Z,5.93
2023-03-16T15:28:13.045Z,5.84
2023-03-16T15:30:41.535Z,5.76
2023-03-16T15:33:10.845Z,5.73
2023-03-16T15:35:39.917Z,5.70
2023-03-16T15:38:14.484Z,5.67
2023-03-16T15:40:45.510Z,5.61
2023-03-16T15:43:15.439Z,5.56
2023-03-16T15:45:43.879Z,5.50
2023-03-16T15:48:12.156Z,5.43
2023-03-16T15:50:46.857Z,5.35
2023-03-16T15:53:31.341Z,5.25
2023-03-16T15:56:07.537Z,5.19
2023-03-16T15:58:38.222Z,5.14
2023-03-16T16:01:07.720Z,5.05
2023-03-16T16:03:35.765Z,4.91
2023-03-16T16:06:03.970Z,4.78
2023-03-16T16:08:32.179Z,4.66
2023-03-16T16:11:00.145Z,4.52
2023-03-16T16:13:44.699Z,4.36
2023-03-16T16:16:18.513Z,4.25
2023-03-16T16:18:48.310Z,4.23
2023-03-16T16:21:24.118Z,4.25
2023-03-16T16:23:52.999Z,4.29
2023-03-16T16:26:52.178Z,4.33
2023-03-16T16:29:24.370Z,4.32
2023-03-16T16:31:52.509Z,4.33
2023-03-16T16:34:24.678Z,4.36
2023-03-16T16:36:54.365Z,4.40
2023-03-16T16:39:22.890Z,4.44
2023-03-16T16:41:54.219Z,4.48
2023-03-16T16:44:27.484Z,4.52
2023-03-16T16:46:55.902Z,4.52
2023-03-16T16:49:30.767Z,4.51
2023-03-16T16:51:59.357Z,4.51
2023-03-16T16:54:32.023Z,4.55
2023-03-16T16:57:01.694Z,4.58
2023-03-16T16:59:33.076Z,4.61
2023-03-16T17:02:03.293Z,4.61
2023-03-16T17:04:31.364Z,4.61
2023-03-16T17:07:02.255Z,4.62
2023-03-16T17:09:30.750Z,4.62
2023-03-16T17:12:01.030Z,4.62
2023-03-16T17:14:31.219Z,4.65
2023-03-16T17:17:05.329Z,4.62
2023-03-16T17:19:33.329Z,4.55
2023-03-16T17:22:01.688Z,4.53
2023-03-16T17:24:29.849Z,4.53
2023-03-16T17:27:00.273Z,4.53
2023-03-16T17:29:33.403Z,4.52
2023-03-16T17:32:03.755Z,4.50
2023-03-16T17:34:34.147Z,4.48
2023-03-16T17:37:02.351Z,4.47
2023-03-16T17:39:34.723Z,4.48
2023-03-16T17:42:14.118Z,4.49
2023-03-16T17:44:46.510Z,4.48
2023-03-16T17:47:27.142Z,4.49
2023-03-16T17:49:55.896Z,4.46
2023-03-16T17:52:25.949Z,4.44
2023-03-16T17:54:54.871Z,4.45
2023-03-16T17:57:29.481Z,4.47
2023-03-16T17:59:58.388Z,4.45
2023-03-16T18:02:49.980Z,4.46
2023-03-16T18:05:38.170Z,4.44
2023-03-16T18:08:28.652Z,4.42
2023-03-16T18:11:00.973Z,4.40
2023-03-16T18:13:33.521Z,4.38
2023-03-16T18:16:02.766Z,4.36
2023-03-16T18:18:35.070Z,4.35
2023-03-16T18:21:03.615Z,4.35
2023-03-16T18:23:33.867Z,4.33
2023-03-16T18:26:07.044Z,4.31
2023-03-16T18:28:35.182Z,4.28
2023-03-16T18:31:05.174Z,4.25
2023-03-16T18:33:39.448Z,4.22
2023-03-16T18:36:16.453Z,4.18
2023-03-16T18:38:47.549Z,4.16
2023-03-16T18:41:21.000Z,4.15
2023-03-16T18:43:50.796Z,4.14
2023-03-16T18:46:29.284Z,4.13
2023-03-16T18:49:00.146Z,4.11
2023-03-16T18:51:29.747Z,4.10
2023-03-16T18:53:57.790Z,4.09
2023-03-16T18:56:28.614Z,4.08
2023-03-16T18:58:57.098Z,4.05
2023-03-16T19:01:33.490Z,4.00
2023-03-16T19:04:02.361Z,3.93
2023-03-16T19:06:33.733Z,3.86
2023-03-16T19:09:08.875Z,3.77
2023-03-16T19:11:43.814Z,3.70
2023-03-16T19:14:20.630Z,3.63
2023-03-16T19:16:48.516Z,3.56
2023-03-16T19:19:21.169Z,3.50
2023-03-16T19:21:53.959Z,3.43
2023-03-16T19:24:28.071Z,3.37
2023-03-16T19:26:56.780Z,3.30
2023-03-16T19:29:35.234Z,3.23
2023-03-16T19:32:03.222Z,3.15
2023-03-16T19:34:33.994Z,3.09
2023-03-16T19:37:01.837Z,3.04
2023-03-16T19:39:29.581Z,2.98
2023-03-16T19:41:59.031Z,2.92
2023-03-16T19:44:28.565Z,2.87
2023-03-16T19:46:56.731Z,2.83
2023-03-16T19:49:27.098Z,2.78
2023-03-16T19:51:56.790Z,2.73
2023-03-16T19:54:32.260Z,2.65
2023-03-16T19:57:07.706Z,2.54
2023-03-16T19:59:36.139Z,2.42
2023-03-16T20:02:24.296Z,2.37
2023-03-16T20:04:53.347Z,2.29
2023-03-16T20:07:22.133Z,2.23
2023-03-16T20:09:51.002Z,2.18
2023-03-16T20:12:31.905Z,2.15
2023-03-16T20:14:59.844Z,2.09
2023-03-16T20:17:29.430Z,2.08
2023-03-16T20:19:58.037Z,2.07
2023-03-16T20:22:28.486Z,2.05
2023-03-16T20:24:58.217Z,1.99
2023-03-16T20:27:28.035Z,1.95
2023-03-16T20:29:56.146Z,1.92
2023-03-16T20:32:33.340Z,1.89
2023-03-16T20:35:01.148Z,1.84
2023-03-16T20:37:32.386Z,1.79
2023-03-16T20:40:00.234Z,1.76
2023-03-16T20:42:32.292Z,1.75
2023-03-16T20:45:00.909Z,1.72
2023-03-16T20:47:28.785Z,1.70
2023-03-16T20:50:00.265Z,1.68
2023-03-16T20:52:30.826Z,1.65
2023-03-16T20:54:59.123Z,1.62
2023-03-16T20:57:29.161Z,1.60
2023-03-16T20:59:57.266Z,1.58
2023-03-16T21:02:35.290Z,1.56
2023-03-16T21:05:07.023Z,1.54
2023-03-16T21:07:34.871Z,1.50
2023-03-16T21:10:02.712Z,1.45
2023-03-16T21:12:33.686Z,1.39
2023-03-16T21:15:03.077Z,1.35
2023-03-16T21:17:39.256Z,1.35
2023-03-16T21:20:18.948Z,1.35
2023-03-16T21:22:46.956Z,1.33
2023-03-16T21:25:38.462Z,1.33
2023-03-16T21:28:06.327Z,1.31
2023-03-16T21:30:40.189Z,1.31
2023-03-16T21:33:30.092Z,1.30
2023-03-16T21:35:59.902Z,1.26
2023-03-16T21:38:29.801Z,1.18
2023-03-16T21:40:57.809Z,1.14
2023-03-16T21:43:26.795Z,1.12
2023-03-16T21:45:55.519Z,1.09
2023-03-16T21:48:45.881Z,1.07
2023-03-16T21:51:19.942Z,1.05
2023-03-16T21:53:49.388Z,1.03
2023-03-16T21:56:22.558Z,1.02
2023-03-16T21:58:50.852Z,0.99
2023-03-16T22:01:32.287Z,0.97
2023-03-16T22:04:06.904Z,0.91
2023-03-16T22:06:35.234Z,0.86
2023-03-16T22:09:04.218Z,0.85
2023-03-16T22:11:32.092Z,0.84
2023-03-16T22:14:00.395Z,0.83
2023-03-16T22:16:32.702Z,0.82
2023-03-16T22:19:01.238Z,0.85
2023-03-16T22:21:38.163Z,0.87
2023-03-16T22:24:12.619Z,0.88
2023-03-16T22:26:40.587Z,0.87
2023-03-16T22:29:25.349Z,0.86
2023-03-16T22:31:57.687Z,0.82
2023-03-16T22:34:33.253Z,0.83
2023-03-16T22:37:02.270Z,0.83
2023-03-16T22:39:37.716Z,0.81
2023-03-16T22:42:33.632Z,0.77
2023-03-16T22:45:02.265Z,0.72
2023-03-16T22:47:35.301Z,0.71
2023-03-16T22:50:03.604Z,0.69
2023-03-16T22:52:35.396Z,0.68
2023-03-16T22:55:05.690Z,0.67
2023-03-16T22:57:33.819Z,0.65
2023-03-16T23:00:11.385Z,0.66
2023-03-16T23:02:40.104Z,0.62
2023-03-16T23:05:29.526Z,0.61
2023-03-16T23:08:01.076Z,0.58
2023-03-16T23:10:29.735Z,0.57
2023-03-16T23:12:59.659Z,0.57
2023-03-16T23:15:30.506Z,0.57
2023-03-16T23:17:58.595Z,0.52
2023-03-16T23:20:30.214Z,0.51
2023-03-16T23:22:58.994Z,0.47
2023-03-16T23:25:26.940Z,0.45
2023-03-16T23:28:02.707Z,0.43
2023-03-16T23:30:31.103Z,0.40
2023-03-16T23:32:59.333Z,0.40
2023-03-16T23:35:30.731Z,0.39
2023-03-16T23:37:58.966Z,0.36
2023-03-16T23:40:29.162Z,0.35
2023-03-16T23:43:00.150Z,0.35
2023-03-16T23:45:38.353Z,0.34
2023-03-16T23:48:13.278Z,0.34
2023-03-16T23:50:42.041Z,0.34
2023-03-16T23:53:12.605Z,0.32
2023-03-16T23:55:41.860Z,0.30
2023-03-16T23:58:11.383Z,0.27
